Weather at Princess Mary Hospital Helipad

Public forecast

Using degrees Celsius for public forecast. Weather courtesy of forecast.io.

Closest aviation weather report (METAR) to Princess Mary Hospital Helipad

Closest report is RAF Akrotiri, 2.7 nm (5.1 km) ENE.

2024/06/18 04:50 (retrieved 20 minutes ago)

LCRA 180450Z 11003KT 9999 FEW015 27/23 Q1009 NOSIG

Closest aviation forecast (TAF) to Princess Mary Hospital Helipad

Forecast is more than 6 hours old.

Closest forecast is Beirut Rafic Hariri International Airport, 134.4 nm (248.9 km) ESE.

2024/06/17 21:00 (retrieved 8 hours ago)

TAF EDLW 172150Z 1721/1818 CNL TAF OLBA 172200Z 1800/1906 VRB02KT 7000 FEW026 TEMPO 1800/1806 5000 BR BECMG 1809/1812 30005KT 8000 BECMG 1815/1818 01005KT BECMG 1821/1824 VRB02KT TEMPO 1821/1906 4000 BR